Mont Alto, Pennsylvania
Current Conditions -  °F | °C
As of 10:53 PM on Wednesday 26 Nov 2014 (Local Time) from KRYT Reporting Station
Overcast Overcast  
Wind Chill: 34°   Ceiling: 5500
Heat Index: 34°   Visibility: 10mi
Dew Point: 30°   Wind: 3mph
Humidity: 85%   Direction: 290°WNW
Pressure: 29.95"   Gusts: NA
Location:  39.84°N, 77.56°W
Report Text: KRYT 270353Z AUTO 29003KT 10SM FEW010 OVC055 01/M01 A2995 RMK AO2 RAB0256E06 SLP157 P0000 T00111011 $
Loading
Personal Weather Stations






























Interactive Weather Map New forecast layout! Learn more

10-Day Weather Forecast

Advertisements
Track Severe Weather on mobile